Hampstead, Maryland
Current Conditions -  °F | °C
As of 11:35 AM on Saturday 22 Nov 2014 (Local Time) from KDMW Reporting Station
Clear Clear  
Wind Chill: 32°   Ceiling: Unl
Heat Index: 39°   Visibility: 10mi
Dew Point: 10°   Wind: 12mph
Humidity: 31%   Direction: 200°SSW
Pressure: 30.38"   Gusts: NA
Location:  39.6°N, 76.85°W
Report Text: KDMW 221635Z AUTO 20010KT 10SM CLR 04/M12 A3038 RMK AO2
Loading
Personal Weather Stations






























Interactive Weather Map New forecast layout! Learn more

10-Day Weather Forecast

Advertisements
Track Severe Weather on mobile